Terminal Aerodrome Forecast
Issued by NWS Twin Cities, MN

Home | Current Version | Previous Version | Text Only | Print | Product List | Glossary Off
Versions: 1 2 3 4 5 6 7 8 9 10 11 12 13 14 15 16 17 18 19 20 21 22 23 24 25 26 27 28 29 30

000
FTUS43 KMPX 021427 AAA
TAFMSP
TAF AMD
KMSP 021427Z 0214/0318 11010KT P6SM OVC035
     FM021600 12010KT P6SM SCT035 SCT120
     FM021800 16011KT P6SM SCT120
     FM030200 15005KT P6SM FEW150
     FM030600 13005KT 6SM BR FEW007 SCT150
     FM031300 14006KT P6SM SKC=

USA.gov is the U.S. government's official web portal to all federal, state and local government web resources and services.